sensor_id;sensor_type;location;lat;lon;timestamp;temperature;humidity
15926;DHT22;8062;53.882;10.642;2023-02-13T00:01:09;7.10;99.90
15926;DHT22;8062;53.882;10.642;2023-02-13T00:02:29;7.10;99.90
15926;DHT22;8062;53.882;10.642;2023-02-13T00:03:48;7.00;99.90
15926;DHT22;8062;53.882;10.642;2023-02-13T00:05:08;7.10;99.90
15926;DHT22;8062;53.882;10.642;2023-02-13T00:06:28;7.10;99.90
15926;DHT22;8062;53.882;10.642;2023-02-13T00:07:47;7.10;99.90
15926;DHT22;8062;53.882;10.642;2023-02-13T00:09:07;7.10;99.90
15926;DHT22;8062;53.882;10.642;2023-02-13T00:10:29;7.10;99.90
15926;DHT22;8062;53.882;10.642;2023-02-13T00:11:48;7.10;99.90
15926;DHT22;8062;53.882;10.642;2023-02-13T00:13:08;7.10;99.90
15926;DHT22;8062;53.882;10.642;2023-02-13T00:14:28;7.10;99.90
15926;DHT22;8062;53.882;10.642;2023-02-13T00:15:55;7.10;99.90
15926;DHT22;8062;53.882;10.642;2023-02-13T00:17:15;7.10;99.90
15926;DHT22;8062;53.882;10.642;2023-02-13T00:18:36;7.10;99.90
15926;DHT22;8062;53.882;10.642;2023-02-13T00:19:56;7.10;99.90
15926;DHT22;8062;53.882;10.642;2023-02-13T00:21:15;7.20;99.90
15926;DHT22;8062;53.882;10.642;2023-02-13T00:22:36;7.10;99.90
15926;DHT22;8062;53.882;10.642;2023-02-13T00:23:56;7.20;99.90
15926;DHT22;8062;53.882;10.642;2023-02-13T00:25:15;7.20;99.90
15926;DHT22;8062;53.882;10.642;2023-02-13T00:26:35;7.20;99.90
15926;DHT22;8062;53.882;10.642;2023-02-13T00:27:54;7.10;99.90
15926;DHT22;8062;53.882;10.642;2023-02-13T00:29:14;7.10;99.90
15926;DHT22;8062;53.882;10.642;2023-02-13T00:30:34;7.10;99.90
15926;DHT22;8062;53.882;10.642;2023-02-13T00:31:54;7.10;99.90
15926;DHT22;8062;53.882;10.642;2023-02-13T00:33:15;7.10;99.90
15926;DHT22;8062;53.882;10.642;2023-02-13T00:34:34;7.10;99.90
15926;DHT22;8062;53.882;10.642;2023-02-13T00:36:05;7.00;99.90
15926;DHT22;8062;53.882;10.642;2023-02-13T00:37:25;7.10;99.90
15926;DHT22;8062;53.882;10.642;2023-02-13T00:38:45;7.10;99.90
15926;DHT22;8062;53.882;10.642;2023-02-13T00:40:05;7.10;99.90
15926;DHT22;8062;53.882;10.642;2023-02-13T00:41:25;7.10;99.90
15926;DHT22;8062;53.882;10.642;2023-02-13T00:42:45;7.00;99.90
15926;DHT22;8062;53.882;10.642;2023-02-13T00:44:04;7.10;99.90
15926;DHT22;8062;53.882;10.642;2023-02-13T00:45:24;7.10;99.90
15926;DHT22;8062;53.882;10.642;2023-02-13T00:46:43;7.10;99.90
15926;DHT22;8062;53.882;10.642;2023-02-13T00:48:03;7.10;99.90
15926;DHT22;8062;53.882;10.642;2023-02-13T00:49:22;7.10;99.90
15926;DHT22;8062;53.882;10.642;2023-02-13T00:50:42;7.10;99.90
15926;DHT22;8062;53.882;10.642;2023-02-13T00:52:02;7.10;99.90
15926;DHT22;8062;53.882;10.642;2023-02-13T00:53:24;7.10;99.90
15926;DHT22;8062;53.882;10.642;2023-02-13T00:54:43;7.20;99.90
15926;DHT22;8062;53.882;10.642;2023-02-13T00:56:06;7.10;99.90
15926;DHT22;8062;53.882;10.642;2023-02-13T00:57:25;7.10;99.90
15926;DHT22;8062;53.882;10.642;2023-02-13T00:58:45;7.10;99.90
15926;DHT22;8062;53.882;10.642;2023-02-13T01:00:05;7.10;99.90
15926;DHT22;8062;53.882;10.642;2023-02-13T01:01:25;7.10;99.90
15926;DHT22;8062;53.882;10.642;2023-02-13T01:02:44;7.20;99.90
15926;DHT22;8062;53.882;10.642;2023-02-13T01:04:04;7.10;99.90
15926;DHT22;8062;53.882;10.642;2023-02-13T01:05:24;7.20;99.90
15926;DHT22;8062;53.882;10.642;2023-02-13T01:06:43;7.10;99.90
15926;DHT22;8062;53.882;10.642;2023-02-13T01:08:03;7.20;99.90
15926;DHT22;8062;53.882;10.642;2023-02-13T01:09:23;7.20;99.90
15926;DHT22;8062;53.882;10.642;2023-02-13T01:10:45;7.20;99.90
15926;DHT22;8062;53.882;10.642;2023-02-13T01:12:05;7.20;99.90
15926;DHT22;8062;53.882;10.642;2023-02-13T01:13:25;7.20;99.90
15926;DHT22;8062;53.882;10.642;2023-02-13T01:14:46;7.20;99.90
15926;DHT22;8062;53.882;10.642;2023-02-13T01:16:06;7.20;99.90
15926;DHT22;8062;53.882;10.642;2023-02-13T01:17:26;7.20;99.90
15926;DHT22;8062;53.882;10.642;2023-02-13T01:18:48;7.20;99.90
15926;DHT22;8062;53.882;10.642;2023-02-13T01:20:09;7.30;99.90
15926;DHT22;8062;53.882;10.642;2023-02-13T01:21:29;7.20;99.90
15926;DHT22;8062;53.882;10.642;2023-02-13T01:22:49;7.20;99.90
15926;DHT22;8062;53.882;10.642;2023-02-13T01:24:09;7.30;99.90
15926;DHT22;8062;53.882;10.642;2023-02-13T01:25:29;7.30;99.90
15926;DHT22;8062;53.882;10.642;2023-02-13T01:26:49;7.30;99.90
15926;DHT22;8062;53.882;10.642;2023-02-13T01:28:09;7.30;99.90
15926;DHT22;8062;53.882;10.642;2023-02-13T01:29:29;7.20;99.90
15926;DHT22;8062;53.882;10.642;2023-02-13T01:30:55;7.20;99.90
15926;DHT22;8062;53.882;10.642;2023-02-13T01:32:16;7.20;99.90
15926;DHT22;8062;53.882;10.642;2023-02-13T01:33:36;7.20;99.90
15926;DHT22;8062;53.882;10.642;2023-02-13T01:34:56;7.10;99.90
15926;DHT22;8062;53.882;10.642;2023-02-13T01:36:15;7.20;99.90
15926;DHT22;8062;53.882;10.642;2023-02-13T01:37:35;7.20;99.90
15926;DHT22;8062;53.882;10.642;2023-02-13T01:38:57;7.10;99.90
15926;DHT22;8062;53.882;10.642;2023-02-13T01:40:17;7.20;99.90
15926;DHT22;8062;53.882;10.642;2023-02-13T01:41:37;7.20;99.90
15926;DHT22;8062;53.882;10.642;2023-02-13T01:42:56;7.20;99.90
15926;DHT22;8062;53.882;10.642;2023-02-13T01:46:08;7.10;99.90
15926;DHT22;8062;53.882;10.642;2023-02-13T01:47:39;7.10;99.90
15926;DHT22;8062;53.882;10.642;2023-02-13T01:49:14;7.10;99.90
15926;DHT22;8062;53.882;10.642;2023-02-13T01:50:37;7.00;99.90
15926;DHT22;8062;53.882;10.642;2023-02-13T01:51:59;7.10;99.90
15926;DHT22;8062;53.882;10.642;2023-02-13T01:53:35;7.10;99.90
15926;DHT22;8062;53.882;10.642;2023-02-13T01:54:56;7.10;99.90
15926;DHT22;8062;53.882;10.642;2023-02-13T01:56:24;7.10;99.90
15926;DHT22;8062;53.882;10.642;2023-02-13T01:57:53;7.00;99.90
15926;DHT22;8062;53.882;10.642;2023-02-13T01:59:20;7.00;99.90
15926;DHT22;8062;53.882;10.642;2023-02-13T02:00:42;6.90;99.90
15926;DHT22;8062;53.882;10.642;2023-02-13T02:02:02;7.00;99.90
15926;DHT22;8062;53.882;10.642;2023-02-13T02:03:34;7.00;99.90
15926;DHT22;8062;53.882;10.642;2023-02-13T02:05:00;7.00;99.90
15926;DHT22;8062;53.882;10.642;2023-02-13T02:06:28;7.00;99.90
15926;DHT22;8062;53.882;10.642;2023-02-13T02:07:50;7.00;99.90
15926;DHT22;8062;53.882;10.642;2023-02-13T02:09:21;7.00;99.90
15926;DHT22;8062;53.882;10.642;2023-02-13T02:10:41;7.00;99.90
15926;DHT22;8062;53.882;10.642;2023-02-13T02:12:25;7.00;99.90
15926;DHT22;8062;53.882;10.642;2023-02-13T02:13:46;6.90;99.90
15926;DHT22;8062;53.882;10.642;2023-02-13T02:15:07;7.00;99.90
15926;DHT22;8062;53.882;10.642;2023-02-13T02:16:27;7.10;99.90
15926;DHT22;8062;53.882;10.642;2023-02-13T02:17:47;7.10;99.90
15926;DHT22;8062;53.882;10.642;2023-02-13T02:19:15;7.10;99.90
15926;DHT22;8062;53.882;10.642;2023-02-13T02:21:14;7.20;99.90
15926;DHT22;8062;53.882;10.642;2023-02-13T02:28:37;7.20;99.90
15926;DHT22;8062;53.882;10.642;2023-02-13T02:30:17;7.20;99.90
15926;DHT22;8062;53.882;10.642;2023-02-13T02:34:43;7.20;99.90
15926;DHT22;8062;53.882;10.642;2023-02-13T02:39:43;7.20;99.90
15926;DHT22;8062;53.882;10.642;2023-02-13T02:41:17;7.20;99.90
15926;DHT22;8062;53.882;10.642;2023-02-13T02:44:55;7.10;99.90
15926;DHT22;8062;53.882;10.642;2023-02-13T02:46:38;7.10;99.90
15926;DHT22;8062;53.882;10.642;2023-02-13T02:50:32;7.10;99.90
15926;DHT22;8062;53.882;10.642;2023-02-13T02:52:14;7.10;99.90
15926;DHT22;8062;53.882;10.642;2023-02-13T02:53:45;7.10;99.90
15926;DHT22;8062;53.882;10.642;2023-02-13T02:57:02;7.10;99.90
15926;DHT22;8062;53.882;10.642;2023-02-13T02:58:32;7.00;99.90
15926;DHT22;8062;53.882;10.642;2023-02-13T03:00:17;6.90;99.90
15926;DHT22;8062;53.882;10.642;2023-02-13T03:01:57;6.90;99.90
15926;DHT22;8062;53.882;10.642;2023-02-13T03:03:37;6.90;99.90
15926;DHT22;8062;53.882;10.642;2023-02-13T03:05:38;6.90;99.90
15926;DHT22;8062;53.882;10.642;2023-02-13T03:07:18;6.80;99.90
15926;DHT22;8062;53.882;10.642;2023-02-13T03:08:51;6.80;99.90
15926;DHT22;8062;53.882;10.642;2023-02-13T03:10:34;6.70;99.90
15926;DHT22;8062;53.882;10.642;2023-02-13T03:12:16;6.70;99.90
15926;DHT22;8062;53.882;10.642;2023-02-13T03:13:57;6.70;99.90
15926;DHT22;8062;53.882;10.642;2023-02-13T03:15:19;6.70;99.90
15926;DHT22;8062;53.882;10.642;2023-02-13T03:16:40;6.60;99.90
15926;DHT22;8062;53.882;10.642;2023-02-13T03:18:18;6.60;99.90
15926;DHT22;8062;53.882;10.642;2023-02-13T03:20:06;6.60;99.90
15926;DHT22;8062;53.882;10.642;2023-02-13T03:23:54;6.50;99.90
15926;DHT22;8062;53.882;10.642;2023-02-13T03:25:28;6.60;99.90
15926;DHT22;8062;53.882;10.642;2023-02-13T03:27:07;6.50;99.90
15926;DHT22;8062;53.882;10.642;2023-02-13T03:28:33;6.50;99.90
15926;DHT22;8062;53.882;10.642;2023-02-13T03:33:55;6.40;99.90
15926;DHT22;8062;53.882;10.642;2023-02-13T03:35:34;6.40;99.90
15926;DHT22;8062;53.882;10.642;2023-02-13T03:37:15;6.40;99.90
15926;DHT22;8062;53.882;10.642;2023-02-13T03:39:22;6.40;99.90
15926;DHT22;8062;53.882;10.642;2023-02-13T03:40:57;6.40;99.90
15926;DHT22;8062;53.882;10.642;2023-02-13T03:42:46;6.50;99.90
15926;DHT22;8062;53.882;10.642;2023-02-13T03:44:27;6.50;99.90
15926;DHT22;8062;53.882;10.642;2023-02-13T03:45:49;6.70;99.90
15926;DHT22;8062;53.882;10.642;2023-02-13T03:47:13;6.60;99.90
15926;DHT22;8062;53.882;10.642;2023-02-13T03:48:35;6.70;99.90
15926;DHT22;8062;53.882;10.642;2023-02-13T03:50:14;6.60;99.90
15926;DHT22;8062;53.882;10.642;2023-02-13T03:51:43;6.60;99.90
15926;DHT22;8062;53.882;10.642;2023-02-13T03:53:09;6.60;99.90
15926;DHT22;8062;53.882;10.642;2023-02-13T03:54:40;6.70;99.90
15926;DHT22;8062;53.882;10.642;2023-02-13T03:56:21;6.80;99.90
15926;DHT22;8062;53.882;10.642;2023-02-13T03:58:22;6.70;99.90
15926;DHT22;8062;53.882;10.642;2023-02-13T04:00:05;6.70;99.90
15926;DHT22;8062;53.882;10.642;2023-02-13T04:01:34;6.70;99.90
15926;DHT22;8062;53.882;10.642;2023-02-13T04:03:23;6.70;99.90
15926;DHT22;8062;53.882;10.642;2023-02-13T04:04:51;6.70;99.90
15926;DHT22;8062;53.882;10.642;2023-02-13T04:06:15;6.70;99.90
15926;DHT22;8062;53.882;10.642;2023-02-13T04:07:35;6.70;99.90
15926;DHT22;8062;53.882;10.642;2023-02-13T04:08:54;6.70;99.90
15926;DHT22;8062;53.882;10.642;2023-02-13T04:10:15;6.70;99.90
15926;DHT22;8062;53.882;10.642;2023-02-13T04:13:17;6.50;99.90
15926;DHT22;8062;53.882;10.642;2023-02-13T04:14:52;6.50;99.90
15926;DHT22;8062;53.882;10.642;2023-02-13T04:16:20;6.50;99.90
15926;DHT22;8062;53.882;10.642;2023-02-13T04:17:50;6.50;99.90
15926;DHT22;8062;53.882;10.642;2023-02-13T04:19:12;6.50;99.90
15926;DHT22;8062;53.882;10.642;2023-02-13T04:20:33;6.60;99.90
15926;DHT22;8062;53.882;10.642;2023-02-13T04:21:57;6.60;99.90
15926;DHT22;8062;53.882;10.642;2023-02-13T04:23:18;6.60;99.90
15926;DHT22;8062;53.882;10.642;2023-02-13T04:24:38;6.60;99.90
15926;DHT22;8062;53.882;10.642;2023-02-13T04:26:00;6.60;99.90
15926;DHT22;8062;53.882;10.642;2023-02-13T04:27:20;6.50;99.90
15926;DHT22;8062;53.882;10.642;2023-02-13T04:28:42;6.50;99.90
15926;DHT22;8062;53.882;10.642;2023-02-13T04:30:01;6.50;99.90
15926;DHT22;8062;53.882;10.642;2023-02-13T04:31:21;6.50;99.90
15926;DHT22;8062;53.882;10.642;2023-02-13T04:32:41;6.50;99.90
15926;DHT22;8062;53.882;10.642;2023-02-13T04:34:00;6.50;99.90
15926;DHT22;8062;53.882;10.642;2023-02-13T04:35:20;6.50;99.90
15926;DHT22;8062;53.882;10.642;2023-02-13T04:36:39;6.50;99.90
15926;DHT22;8062;53.882;10.642;2023-02-13T04:37:59;6.50;99.90
15926;DHT22;8062;53.882;10.642;2023-02-13T04:39:18;6.50;99.90
15926;DHT22;8062;53.882;10.642;2023-02-13T04:40:38;6.50;99.90
15926;DHT22;8062;53.882;10.642;2023-02-13T04:41:57;6.50;99.90
15926;DHT22;8062;53.882;10.642;2023-02-13T04:43:17;6.50;99.90
15926;DHT22;8062;53.882;10.642;2023-02-13T04:44:36;6.60;99.90
15926;DHT22;8062;53.882;10.642;2023-02-13T04:45:56;6.60;99.90
15926;DHT22;8062;53.882;10.642;2023-02-13T04:47:16;6.60;99.90
15926;DHT22;8062;53.882;10.642;2023-02-13T04:48:36;6.60;99.90
15926;DHT22;8062;53.882;10.642;2023-02-13T04:49:55;6.60;99.90
15926;DHT22;8062;53.882;10.642;2023-02-13T04:51:15;6.60;99.90
15926;DHT22;8062;53.882;10.642;2023-02-13T04:52:35;6.60;99.90
15926;DHT22;8062;53.882;10.642;2023-02-13T04:53:54;6.60;99.90
15926;DHT22;8062;53.882;10.642;2023-02-13T04:55:14;6.60;99.90
15926;DHT22;8062;53.882;10.642;2023-02-13T04:56:33;6.60;99.90
15926;DHT22;8062;53.882;10.642;2023-02-13T04:57:54;6.70;99.90
15926;DHT22;8062;53.882;10.642;2023-02-13T04:59:14;6.60;99.90
15926;DHT22;8062;53.882;10.642;2023-02-13T05:00:34;6.60;99.90
15926;DHT22;8062;53.882;10.642;2023-02-13T05:01:53;6.60;99.90
15926;DHT22;8062;53.882;10.642;2023-02-13T05:03:13;6.60;99.90
15926;DHT22;8062;53.882;10.642;2023-02-13T05:04:32;6.60;99.90
15926;DHT22;8062;53.882;10.642;2023-02-13T05:05:52;6.60;99.90
15926;DHT22;8062;53.882;10.642;2023-02-13T05:07:12;6.70;99.90
15926;DHT22;8062;53.882;10.642;2023-02-13T05:08:32;6.60;99.90
15926;DHT22;8062;53.882;10.642;2023-02-13T05:09:51;6.60;99.90
15926;DHT22;8062;53.882;10.642;2023-02-13T05:11:11;6.60;99.90
15926;DHT22;8062;53.882;10.642;2023-02-13T05:12:31;6.70;99.90
15926;DHT22;8062;53.882;10.642;2023-02-13T05:13:50;6.70;99.90
15926;DHT22;8062;53.882;10.642;2023-02-13T05:15:10;6.70;99.90
15926;DHT22;8062;53.882;10.642;2023-02-13T05:16:29;6.70;99.90
15926;DHT22;8062;53.882;10.642;2023-02-13T05:17:49;6.60;99.90
15926;DHT22;8062;53.882;10.642;2023-02-13T05:19:09;6.60;99.90
15926;DHT22;8062;53.882;10.642;2023-02-13T05:20:28;6.60;99.90
15926;DHT22;8062;53.882;10.642;2023-02-13T05:21:48;6.60;99.90
15926;DHT22;8062;53.882;10.642;2023-02-13T05:23:26;6.60;99.90
15926;DHT22;8062;53.882;10.642;2023-02-13T05:24:46;6.50;99.90
15926;DHT22;8062;53.882;10.642;2023-02-13T05:26:05;6.50;99.90
15926;DHT22;8062;53.882;10.642;2023-02-13T05:27:25;6.50;99.90
15926;DHT22;8062;53.882;10.642;2023-02-13T05:28:45;6.50;99.90
15926;DHT22;8062;53.882;10.642;2023-02-13T05:30:23;6.50;99.90
15926;DHT22;8062;53.882;10.642;2023-02-13T05:31:47;6.50;99.90
15926;DHT22;8062;53.882;10.642;2023-02-13T05:33:07;6.60;99.90
15926;DHT22;8062;53.882;10.642;2023-02-13T05:34:27;6.60;99.90
15926;DHT22;8062;53.882;10.642;2023-02-13T05:35:47;6.60;99.90
15926;DHT22;8062;53.882;10.642;2023-02-13T05:37:06;6.60;99.90
15926;DHT22;8062;53.882;10.642;2023-02-13T05:38:26;6.50;99.90
15926;DHT22;8062;53.882;10.642;2023-02-13T05:39:45;6.50;99.90
15926;DHT22;8062;53.882;10.642;2023-02-13T05:41:05;6.50;99.90
15926;DHT22;8062;53.882;10.642;2023-02-13T05:42:25;6.50;99.90
15926;DHT22;8062;53.882;10.642;2023-02-13T05:43:44;6.60;99.90
15926;DHT22;8062;53.882;10.642;2023-02-13T05:45:05;6.60;99.90
15926;DHT22;8062;53.882;10.642;2023-02-13T05:46:24;6.50;99.90
15926;DHT22;8062;53.882;10.642;2023-02-13T05:47:44;6.60;99.90
15926;DHT22;8062;53.882;10.642;2023-02-13T05:49:04;6.50;99.90
15926;DHT22;8062;53.882;10.642;2023-02-13T05:50:24;6.60;99.90
15926;DHT22;8062;53.882;10.642;2023-02-13T05:51:43;6.50;99.90
15926;DHT22;8062;53.882;10.642;2023-02-13T05:53:04;6.50;99.90
15926;DHT22;8062;53.882;10.642;2023-02-13T05:54:24;6.50;99.90
15926;DHT22;8062;53.882;10.642;2023-02-13T05:55:44;6.50;99.90
15926;DHT22;8062;53.882;10.642;2023-02-13T05:57:03;6.50;99.90
15926;DHT22;8062;53.882;10.642;2023-02-13T05:58:23;6.60;99.90
15926;DHT22;8062;53.882;10.642;2023-02-13T05:59:43;6.60;99.90
15926;DHT22;8062;53.882;10.642;2023-02-13T06:01:03;6.50;99.90
15926;DHT22;8062;53.882;10.642;2023-02-13T06:02:23;6.50;99.90
15926;DHT22;8062;53.882;10.642;2023-02-13T06:03:42;6.50;99.90
15926;DHT22;8062;53.882;10.642;2023-02-13T06:05:02;6.50;99.90
15926;DHT22;8062;53.882;10.642;2023-02-13T06:06:21;6.40;99.90
15926;DHT22;8062;53.882;10.642;2023-02-13T06:07:41;6.40;99.90
15926;DHT22;8062;53.882;10.642;2023-02-13T06:09:01;6.50;99.90
15926;DHT22;8062;53.882;10.642;2023-02-13T06:10:21;6.50;99.90
15926;DHT22;8062;53.882;10.642;2023-02-13T06:11:41;6.50;99.90
15926;DHT22;8062;53.882;10.642;2023-02-13T06:13:00;6.50;99.90
15926;DHT22;8062;53.882;10.642;2023-02-13T06:14:20;6.40;99.90
15926;DHT22;8062;53.882;10.642;2023-02-13T06:15:40;6.40;99.90
15926;DHT22;8062;53.882;10.642;2023-02-13T06:17:00;6.40;99.90
15926;DHT22;8062;53.882;10.642;2023-02-13T06:18:20;6.40;99.90
15926;DHT22;8062;53.882;10.642;2023-02-13T06:19:40;6.40;99.90
15926;DHT22;8062;53.882;10.642;2023-02-13T06:21:00;6.40;99.90
15926;DHT22;8062;53.882;10.642;2023-02-13T06:22:19;6.50;99.90
15926;DHT22;8062;53.882;10.642;2023-02-13T06:23:39;6.50;99.90
15926;DHT22;8062;53.882;10.642;2023-02-13T06:24:59;6.50;99.90
15926;DHT22;8062;53.882;10.642;2023-02-13T06:26:18;6.50;99.90
15926;DHT22;8062;53.882;10.642;2023-02-13T06:27:38;6.50;99.90
15926;DHT22;8062;53.882;10.642;2023-02-13T06:28:58;6.40;99.90
15926;DHT22;8062;53.882;10.642;2023-02-13T06:30:18;6.50;99.90
15926;DHT22;8062;53.882;10.642;2023-02-13T06:31:38;6.50;99.90
15926;DHT22;8062;53.882;10.642;2023-02-13T06:32:58;6.50;99.90
15926;DHT22;8062;53.882;10.642;2023-02-13T06:34:17;6.40;99.90
15926;DHT22;8062;53.882;10.642;2023-02-13T06:35:36;6.40;99.90
15926;DHT22;8062;53.882;10.642;2023-02-13T06:36:56;6.40;99.90
15926;DHT22;8062;53.882;10.642;2023-02-13T06:38:16;6.50;99.90
15926;DHT22;8062;53.882;10.642;2023-02-13T06:39:39;6.40;99.90
15926;DHT22;8062;53.882;10.642;2023-02-13T06:41:00;6.40;99.90
15926;DHT22;8062;53.882;10.642;2023-02-13T06:42:23;6.50;99.90
15926;DHT22;8062;53.882;10.642;2023-02-13T06:43:42;6.50;99.90
15926;DHT22;8062;53.882;10.642;2023-02-13T06:45:02;6.50;99.90
15926;DHT22;8062;53.882;10.642;2023-02-13T06:46:22;6.50;99.90
15926;DHT22;8062;53.882;10.642;2023-02-13T06:47:43;6.50;99.90
15926;DHT22;8062;53.882;10.642;2023-02-13T06:49:03;6.50;99.90
15926;DHT22;8062;53.882;10.642;2023-02-13T06:50:22;6.40;99.90
15926;DHT22;8062;53.882;10.642;2023-02-13T06:51:42;6.40;99.90
15926;DHT22;8062;53.882;10.642;2023-02-13T06:53:02;6.40;99.90
15926;DHT22;8062;53.882;10.642;2023-02-13T06:54:21;6.40;99.90
15926;DHT22;8062;53.882;10.642;2023-02-13T06:55:41;6.40;99.90
15926;DHT22;8062;53.882;10.642;2023-02-13T06:57:00;6.40;99.90
15926;DHT22;8062;53.882;10.642;2023-02-13T06:58:21;6.50;99.90
15926;DHT22;8062;53.882;10.642;2023-02-13T06:59:42;6.50;99.90
15926;DHT22;8062;53.882;10.642;2023-02-13T07:01:01;6.40;99.90
15926;DHT22;8062;53.882;10.642;2023-02-13T07:02:21;6.50;99.90
15926;DHT22;8062;53.882;10.642;2023-02-13T07:03:41;6.50;99.90
15926;DHT22;8062;53.882;10.642;2023-02-13T07:05:00;6.40;99.90
15926;DHT22;8062;53.882;10.642;2023-02-13T07:06:20;6.50;99.90
15926;DHT22;8062;53.882;10.642;2023-02-13T07:07:41;6.50;99.90
15926;DHT22;8062;53.882;10.642;2023-02-13T07:09:02;6.50;99.90
15926;DHT22;8062;53.882;10.642;2023-02-13T07:10:21;6.40;99.90
15926;DHT22;8062;53.882;10.642;2023-02-13T07:11:41;6.40;99.90
15926;DHT22;8062;53.882;10.642;2023-02-13T07:13:01;6.40;99.90
15926;DHT22;8062;53.882;10.642;2023-02-13T07:14:20;6.40;99.90
15926;DHT22;8062;53.882;10.642;2023-02-13T07:15:40;6.40;99.90
15926;DHT22;8062;53.882;10.642;2023-02-13T07:17:00;6.40;99.90
15926;DHT22;8062;53.882;10.642;2023-02-13T07:18:19;6.40;99.90
15926;DHT22;8062;53.882;10.642;2023-02-13T07:19:39;6.40;99.90
15926;DHT22;8062;53.882;10.642;2023-02-13T07:20:59;6.40;99.90
15926;DHT22;8062;53.882;10.642;2023-02-13T07:22:19;6.40;99.90
15926;DHT22;8062;53.882;10.642;2023-02-13T07:23:38;6.40;99.90
15926;DHT22;8062;53.882;10.642;2023-02-13T07:24:58;6.40;99.90
15926;DHT22;8062;53.882;10.642;2023-02-13T07:26:18;6.40;99.90
15926;DHT22;8062;53.882;10.642;2023-02-13T07:27:37;6.40;99.90
15926;DHT22;8062;53.882;10.642;2023-02-13T07:28:57;6.50;99.90
15926;DHT22;8062;53.882;10.642;2023-02-13T07:30:17;6.50;99.90
15926;DHT22;8062;53.882;10.642;2023-02-13T07:31:36;6.50;99.90
15926;DHT22;8062;53.882;10.642;2023-02-13T07:33:02;6.50;99.90
15926;DHT22;8062;53.882;10.642;2023-02-13T07:34:21;6.50;99.90
15926;DHT22;8062;53.882;10.642;2023-02-13T07:35:48;6.50;99.90
15926;DHT22;8062;53.882;10.642;2023-02-13T07:37:08;6.50;99.90
15926;DHT22;8062;53.882;10.642;2023-02-13T07:38:31;6.40;99.90
15926;DHT22;8062;53.882;10.642;2023-02-13T07:39:51;6.40;99.90
15926;DHT22;8062;53.882;10.642;2023-02-13T07:41:10;6.40;99.90
15926;DHT22;8062;53.882;10.642;2023-02-13T07:42:33;6.40;99.90
15926;DHT22;8062;53.882;10.642;2023-02-13T07:43:53;6.50;99.90
15926;DHT22;8062;53.882;10.642;2023-02-13T07:45:13;6.50;99.90
15926;DHT22;8062;53.882;10.642;2023-02-13T07:46:34;6.50;99.90
15926;DHT22;8062;53.882;10.642;2023-02-13T07:47:54;6.50;99.90
15926;DHT22;8062;53.882;10.642;2023-02-13T07:49:14;6.40;99.90
15926;DHT22;8062;53.882;10.642;2023-02-13T07:50:34;6.40;99.90
15926;DHT22;8062;53.882;10.642;2023-02-13T07:51:55;6.40;99.90
15926;DHT22;8062;53.882;10.642;2023-02-13T07:53:16;6.50;99.90
15926;DHT22;8062;53.882;10.642;2023-02-13T07:54:36;6.50;99.90
15926;DHT22;8062;53.882;10.642;2023-02-13T07:55:55;6.50;99.90
15926;DHT22;8062;53.882;10.642;2023-02-13T07:57:15;6.50;99.90
15926;DHT22;8062;53.882;10.642;2023-02-13T07:58:36;6.50;99.90
15926;DHT22;8062;53.882;10.642;2023-02-13T07:59:56;6.40;99.90
15926;DHT22;8062;53.882;10.642;2023-02-13T08:01:16;6.50;99.90
15926;DHT22;8062;53.882;10.642;2023-02-13T08:02:37;6.50;99.90
15926;DHT22;8062;53.882;10.642;2023-02-13T08:03:57;6.50;99.90
15926;DHT22;8062;53.882;10.642;2023-02-13T08:05:17;6.50;99.90
15926;DHT22;8062;53.882;10.642;2023-02-13T08:06:39;6.50;99.90
15926;DHT22;8062;53.882;10.642;2023-02-13T08:07:59;6.40;99.90
15926;DHT22;8062;53.882;10.642;2023-02-13T08:09:20;6.50;99.90
15926;DHT22;8062;53.882;10.642;2023-02-13T08:11:05;6.50;99.90
15926;DHT22;8062;53.882;10.642;2023-02-13T08:12:45;6.50;99.90
15926;DHT22;8062;53.882;10.642;2023-02-13T08:14:04;6.50;99.90
15926;DHT22;8062;53.882;10.642;2023-02-13T08:15:24;6.50;99.90
15926;DHT22;8062;53.882;10.642;2023-02-13T08:16:44;6.50;99.90
15926;DHT22;8062;53.882;10.642;2023-02-13T08:18:04;6.50;99.90
15926;DHT22;8062;53.882;10.642;2023-02-13T08:19:23;6.50;99.90
15926;DHT22;8062;53.882;10.642;2023-02-13T08:20:43;6.50;99.90
15926;DHT22;8062;53.882;10.642;2023-02-13T08:22:02;6.50;99.90
15926;DHT22;8062;53.882;10.642;2023-02-13T08:23:22;6.60;99.90
15926;DHT22;8062;53.882;10.642;2023-02-13T08:24:41;6.60;99.90
15926;DHT22;8062;53.882;10.642;2023-02-13T08:26:01;6.50;99.90
15926;DHT22;8062;53.882;10.642;2023-02-13T08:27:20;6.50;99.90
15926;DHT22;8062;53.882;10.642;2023-02-13T08:28:41;6.50;99.90
15926;DHT22;8062;53.882;10.642;2023-02-13T08:30:01;6.50;99.90
15926;DHT22;8062;53.882;10.642;2023-02-13T08:31:21;6.60;99.90
15926;DHT22;8062;53.882;10.642;2023-02-13T08:32:41;6.70;99.90
15926;DHT22;8062;53.882;10.642;2023-02-13T08:34:01;6.70;99.90
15926;DHT22;8062;53.882;10.642;2023-02-13T08:35:21;6.70;99.90
15926;DHT22;8062;53.882;10.642;2023-02-13T08:36:41;6.70;99.90
15926;DHT22;8062;53.882;10.642;2023-02-13T08:38:02;6.60;99.90
15926;DHT22;8062;53.882;10.642;2023-02-13T08:39:22;6.70;99.90
15926;DHT22;8062;53.882;10.642;2023-02-13T08:40:42;6.70;99.90
15926;DHT22;8062;53.882;10.642;2023-02-13T08:42:02;6.70;99.90
15926;DHT22;8062;53.882;10.642;2023-02-13T08:43:21;6.70;99.90
15926;DHT22;8062;53.882;10.642;2023-02-13T08:44:41;6.60;99.90
15926;DHT22;8062;53.882;10.642;2023-02-13T08:46:01;6.60;99.90
15926;DHT22;8062;53.882;10.642;2023-02-13T08:47:20;6.60;99.90
15926;DHT22;8062;53.882;10.642;2023-02-13T08:48:40;6.60;99.90
15926;DHT22;8062;53.882;10.642;2023-02-13T08:50:03;6.60;99.90
15926;DHT22;8062;53.882;10.642;2023-02-13T08:51:23;6.60;99.90
15926;DHT22;8062;53.882;10.642;2023-02-13T08:52:42;6.70;99.90
15926;DHT22;8062;53.882;10.642;2023-02-13T08:54:02;6.70;99.90
15926;DHT22;8062;53.882;10.642;2023-02-13T08:55:22;6.70;99.90
15926;DHT22;8062;53.882;10.642;2023-02-13T08:56:42;6.70;99.90
15926;DHT22;8062;53.882;10.642;2023-02-13T08:58:03;6.70;99.90
15926;DHT22;8062;53.882;10.642;2023-02-13T08:59:23;6.70;99.90
15926;DHT22;8062;53.882;10.642;2023-02-13T09:00:42;6.80;99.90
15926;DHT22;8062;53.882;10.642;2023-02-13T09:02:02;6.80;99.90
15926;DHT22;8062;53.882;10.642;2023-02-13T09:03:22;6.90;99.90
15926;DHT22;8062;53.882;10.642;2023-02-13T09:04:41;6.80;99.90
15926;DHT22;8062;53.882;10.642;2023-02-13T09:06:01;6.80;99.90
15926;DHT22;8062;53.882;10.642;2023-02-13T09:07:21;6.80;99.90
15926;DHT22;8062;53.882;10.642;2023-02-13T09:08:40;6.80;99.90
15926;DHT22;8062;53.882;10.642;2023-02-13T09:10:00;6.80;99.90
15926;DHT22;8062;53.882;10.642;2023-02-13T09:11:20;6.80;99.90
15926;DHT22;8062;53.882;10.642;2023-02-13T09:12:41;6.80;99.90
15926;DHT22;8062;53.882;10.642;2023-02-13T09:14:01;6.80;99.90
15926;DHT22;8062;53.882;10.642;2023-02-13T09:15:20;6.90;99.90
15926;DHT22;8062;53.882;10.642;2023-02-13T09:16:40;6.80;99.90
15926;DHT22;8062;53.882;10.642;2023-02-13T09:18:00;6.80;99.90
15926;DHT22;8062;53.882;10.642;2023-02-13T09:19:19;6.70;99.90
15926;DHT22;8062;53.882;10.642;2023-02-13T09:20:39;6.80;99.90